Time,TemperatureF,DewpointF,PressureIn,WindDirection,WindDirectionDegrees,WindSpeedMPH,WindSpeedGustMPH,Humidity,HourlyPrecipIn,Conditions,Clouds,dailyrainin,SoftwareType,DateUTC
2013-02-16 01:00:00,41.0,30.0,-100.00,North,0,0.0,11.0,64,-99.99,,,-99.99,,2013-02-16 06:00:00,
2013-02-16 01:22:00,41.0,30.0,-100.00,North,0,0.0,11.0,64,-99.99,,,-99.99,,2013-02-16 06:22:00,
2013-02-16 01:32:00,41.0,30.0,-100.00,North,0,0.0,11.0,64,-99.99,,,-99.99,,2013-02-16 06:32:00,
2013-02-16 01:42:00,41.0,30.0,-100.00,North,0,0.0,11.0,64,-99.99,,,-99.99,,2013-02-16 06:42:00,
2013-02-16 01:52:00,41.0,30.0,-100.00,North,0,0.0,11.0,64,-99.99,,,-99.99,,2013-02-16 06:52:00,
2013-02-16 02:00:00,39.0,32.0,-100.00,NNW,347,2.0,10.0,74,-99.99,,,-99.99,,2013-02-16 07:00:00,
2013-02-16 02:22:00,39.0,32.0,-100.00,NNW,347,2.0,10.0,74,-99.99,,,-99.99,,2013-02-16 07:22:00,
2013-02-16 02:32:00,39.0,32.0,-100.00,NNW,347,2.0,10.0,74,-99.99,,,-99.99,,2013-02-16 07:32:00,
2013-02-16 02:42:00,39.0,32.0,-100.00,NNW,347,2.0,10.0,74,-99.99,,,-99.99,,2013-02-16 07:42:00,
2013-02-16 02:53:00,39.0,32.0,-100.00,NNW,347,2.0,10.0,74,-99.99,,,-99.99,,2013-02-16 07:53:00,
2013-02-16 03:00:00,38.0,32.0,-100.00,NW,316,0.0,9.0,82,-99.99,,,-99.99,,2013-02-16 08:00:00,
2013-02-16 03:22:00,38.0,32.0,-100.00,NW,316,0.0,9.0,82,-99.99,,,-99.99,,2013-02-16 08:22:00,
2013-02-16 03:32:00,38.0,32.0,-100.00,NW,316,0.0,9.0,82,-99.99,,,-99.99,,2013-02-16 08:32:00,
2013-02-16 03:42:00,38.0,32.0,-100.00,NW,316,0.0,9.0,82,-99.99,,,-99.99,,2013-02-16 08:42:00,
2013-02-16 03:52:00,38.0,32.0,-100.00,NW,316,0.0,9.0,82,-99.99,,,-99.99,,2013-02-16 08:52:00,
2013-02-16 04:00:00,37.0,33.0,-100.00,NNW,332,0.0,10.0,85,-99.99,,,-99.99,,2013-02-16 09:00:00,
2013-02-16 04:21:00,37.0,33.0,-100.00,NNW,332,0.0,10.0,85,-99.99,,,-99.99,,2013-02-16 09:21:00,
2013-02-16 04:32:00,37.0,33.0,-100.00,NNW,332,0.0,10.0,85,-99.99,,,-99.99,,2013-02-16 09:32:00,
2013-02-16 04:42:00,37.0,33.0,-100.00,NNW,332,0.0,10.0,85,-99.99,,,-99.99,,2013-02-16 09:42:00,
2013-02-16 04:52:00,37.0,33.0,-100.00,NNW,332,0.0,10.0,85,-99.99,,,-99.99,,2013-02-16 09:52:00,
2013-02-16 05:00:00,36.0,33.0,-100.00,WSW,258,0.0,9.0,87,-99.99,,,-99.99,,2013-02-16 10:00:00,
2013-02-16 05:21:00,36.0,33.0,-100.00,WSW,258,0.0,9.0,87,-99.99,,,-99.99,,2013-02-16 10:21:00,
2013-02-16 05:32:00,36.0,33.0,-100.00,WSW,258,0.0,9.0,87,-99.99,,,-99.99,,2013-02-16 10:32:00,
2013-02-16 05:42:00,36.0,33.0,-100.00,WSW,258,0.0,9.0,87,-99.99,,,-99.99,,2013-02-16 10:42:00,
2013-02-16 05:52:00,36.0,33.0,-100.00,WSW,258,0.0,9.0,87,-99.99,,,-99.99,,2013-02-16 10:52:00,
2013-02-16 06:00:00,36.0,33.0,-100.00,NNE,13,0.0,6.0,88,-99.99,,,-99.99,,2013-02-16 11:00:00,
2013-02-16 06:22:00,36.0,33.0,-100.00,NNE,13,0.0,6.0,88,-99.99,,,-99.99,,2013-02-16 11:22:00,
2013-02-16 06:32:00,36.0,33.0,-100.00,NNE,13,0.0,6.0,88,-99.99,,,-99.99,,2013-02-16 11:32:00,
2013-02-16 06:42:00,36.0,33.0,-100.00,NNE,13,0.0,6.0,88,-99.99,,,-99.99,,2013-02-16 11:42:00,
2013-02-16 06:52:00,36.0,33.0,-100.00,NNE,13,0.0,6.0,88,-99.99,,,-99.99,,2013-02-16 11:52:00,
2013-02-16 07:00:00,36.0,32.0,-100.00,WNW,292,0.0,8.0,87,-99.99,,,-99.99,,2013-02-16 12:00:00,
2013-02-16 07:32:00,36.0,32.0,-100.00,WNW,292,0.0,8.0,87,-99.99,,,-99.99,,2013-02-16 12:32:00,
2013-02-16 07:42:00,36.0,32.0,-100.00,WNW,292,0.0,8.0,87,-99.99,,,-99.99,,2013-02-16 12:42:00,
2013-02-16 07:52:00,36.0,32.0,-100.00,WNW,292,0.0,8.0,87,-99.99,,,-99.99,,2013-02-16 12:52:00,
2013-02-16 08:00:00,35.0,32.0,-100.00,NNE,25,6.0,11.0,85,-99.99,,,-99.99,,2013-02-16 13:00:00,
2013-02-16 08:22:00,35.0,32.0,-100.00,NNE,25,6.0,11.0,85,-99.99,,,-99.99,,2013-02-16 13:22:00,
2013-02-16 08:32:00,35.0,32.0,-100.00,NNE,25,6.0,11.0,85,-99.99,,,-99.99,,2013-02-16 13:32:00,
2013-02-16 08:42:00,35.0,32.0,-100.00,NNE,25,6.0,11.0,85,-99.99,,,-99.99,,2013-02-16 13:42:00,
2013-02-16 08:52:00,35.0,32.0,-100.00,NNE,25,6.0,11.0,85,-99.99,,,-99.99,,2013-02-16 13:52:00,
2013-02-16 09:00:00,36.0,32.0,-100.00,NNW,338,0.0,14.0,82,-99.99,,,-99.99,,2013-02-16 14:00:00,
2013-02-16 09:21:00,36.0,32.0,-100.00,NNW,338,0.0,14.0,82,-99.99,,,-99.99,,2013-02-16 14:21:00,
2013-02-16 09:32:00,36.0,32.0,-100.00,NNW,338,0.0,14.0,82,-99.99,,,-99.99,,2013-02-16 14:32:00,
2013-02-16 09:42:00,36.0,32.0,-100.00,NNW,338,0.0,14.0,82,-99.99,,,-99.99,,2013-02-16 14:42:00,
2013-02-16 09:52:00,36.0,32.0,-100.00,NNW,338,0.0,14.0,82,-99.99,,,-99.99,,2013-02-16 14:52:00,
2013-02-16 10:00:00,35.0,29.0,-100.00,NNE,14,10.0,15.0,80,-99.99,,,-99.99,,2013-02-16 15:00:00,
2013-02-16 10:22:00,35.0,29.0,-100.00,NNE,14,10.0,15.0,80,-99.99,,,-99.99,,2013-02-16 15:22:00,
2013-02-16 10:32:00,35.0,29.0,-100.00,NNE,14,10.0,15.0,80,-99.99,,,-99.99,,2013-02-16 15:32:00,
2013-02-16 10:42:00,35.0,29.0,-100.00,NNE,14,10.0,15.0,80,-99.99,,,-99.99,,2013-02-16 15:42:00,
2013-02-16 10:52:00,35.0,29.0,-100.00,NNE,14,10.0,15.0,80,-99.99,,,-99.99,,2013-02-16 15:52:00,
2013-02-16 11:00:00,35.0,30.0,-100.00,NW,323,2.0,12.0,82,-99.99,,,-99.99,,2013-02-16 16:00:00,
2013-02-16 11:22:00,35.0,30.0,-100.00,NW,323,2.0,12.0,82,-99.99,,,-99.99,,2013-02-16 16:22:00,
2013-02-16 11:32:00,35.0,30.0,-100.00,NW,323,2.0,12.0,82,-99.99,,,-99.99,,2013-02-16 16:32:00,
2013-02-16 11:42:00,35.0,30.0,-100.00,NW,323,2.0,12.0,82,-99.99,,,-99.99,,2013-02-16 16:42:00,
2013-02-16 11:52:00,35.0,30.0,-100.00,NW,323,2.0,12.0,82,-99.99,,,-99.99,,2013-02-16 16:52:00,
2013-02-16 12:00:00,34.0,31.0,-100.00,NE,39,5.0,14.0,88,-99.99,,,-99.99,,2013-02-16 17:00:00,
2013-02-16 12:22:00,34.0,31.0,-100.00,NE,39,5.0,14.0,88,-99.99,,,-99.99,,2013-02-16 17:22:00,
2013-02-16 12:32:00,34.0,31.0,-100.00,NE,39,5.0,14.0,88,-99.99,,,-99.99,,2013-02-16 17:32:00,
2013-02-16 12:42:00,34.0,31.0,-100.00,NE,39,5.0,14.0,88,-99.99,,,-99.99,,2013-02-16 17:42:00,
2013-02-16 12:52:00,34.0,31.0,-100.00,NE,39,5.0,14.0,88,-99.99,,,-99.99,,2013-02-16 17:52:00,
2013-02-16 13:00:00,36.0,30.0,-100.00,NNE,17,6.0,11.0,76,-99.99,,,-99.99,,2013-02-16 18:00:00,
2013-02-16 13:22:00,36.0,30.0,-100.00,NNE,17,6.0,11.0,76,-99.99,,,-99.99,,2013-02-16 18:22:00,
2013-02-16 13:33:00,36.0,30.0,-100.00,NNE,17,6.0,11.0,76,-99.99,,,-99.99,,2013-02-16 18:33:00,
2013-02-16 13:42:00,36.0,30.0,-100.00,NNE,17,6.0,11.0,76,-99.99,,,-99.99,,2013-02-16 18:42:00,
2013-02-16 13:52:00,36.0,30.0,-100.00,NNE,17,6.0,11.0,76,-99.99,,,-99.99,,2013-02-16 18:52:00,
2013-02-16 14:00:00,37.0,27.0,-100.00,North,6,9.0,11.0,67,-99.99,,,-99.99,,2013-02-16 19:00:00,
2013-02-16 14:22:00,37.0,27.0,-100.00,North,6,9.0,11.0,67,-99.99,,,-99.99,,2013-02-16 19:22:00,
2013-02-16 14:32:00,37.0,27.0,-100.00,North,6,9.0,11.0,67,-99.99,,,-99.99,,2013-02-16 19:32:00,
2013-02-16 14:42:00,37.0,27.0,-100.00,North,6,9.0,11.0,67,-99.99,,,-99.99,,2013-02-16 19:42:00,
2013-02-16 14:52:00,37.0,27.0,-100.00,North,6,9.0,11.0,67,-99.99,,,-99.99,,2013-02-16 19:52:00,
2013-02-16 15:00:00,38.0,25.0,-100.00,NNE,18,4.0,13.0,61,-99.99,,,-99.99,,2013-02-16 20:00:00,
2013-02-16 15:22:00,38.0,25.0,-100.00,NNE,18,4.0,13.0,61,-99.99,,,-99.99,,2013-02-16 20:22:00,
2013-02-16 15:32:00,38.0,25.0,-100.00,NNE,18,4.0,13.0,61,-99.99,,,-99.99,,2013-02-16 20:32:00,
2013-02-16 15:42:00,38.0,25.0,-100.00,NNE,18,4.0,13.0,61,-99.99,,,-99.99,,2013-02-16 20:42:00,
2013-02-16 15:52:00,38.0,25.0,-100.00,NNE,18,4.0,13.0,61,-99.99,,,-99.99,,2013-02-16 20:52:00,
2013-02-16 16:00:00,37.0,24.0,-100.00,North,0,0.0,11.0,60,-99.99,,,-99.99,,2013-02-16 21:00:00,
2013-02-16 16:22:00,37.0,24.0,-100.00,North,0,0.0,11.0,60,-99.99,,,-99.99,,2013-02-16 21:22:00,
2013-02-16 16:32:00,37.0,24.0,-100.00,North,0,0.0,11.0,60,-99.99,,,-99.99,,2013-02-16 21:32:00,
2013-02-16 16:42:00,37.0,24.0,-100.00,North,0,0.0,11.0,60,-99.99,,,-99.99,,2013-02-16 21:42:00,
2013-02-16 16:52:00,37.0,24.0,-100.00,North,0,0.0,11.0,60,-99.99,,,-99.99,,2013-02-16 21:52:00,
2013-02-16 17:00:00,37.0,25.0,-100.00,NNE,20,0.0,9.0,61,-99.99,,,-99.99,,2013-02-16 22:00:00,
2013-02-16 17:22:00,37.0,25.0,-100.00,NNE,20,0.0,9.0,61,-99.99,,,-99.99,,2013-02-16 22:22:00,
2013-02-16 17:32:00,37.0,25.0,-100.00,NNE,20,0.0,9.0,61,-99.99,,,-99.99,,2013-02-16 22:32:00,
2013-02-16 17:42:00,37.0,25.0,-100.00,NNE,20,0.0,9.0,61,-99.99,,,-99.99,,2013-02-16 22:42:00,
2013-02-16 17:52:00,37.0,25.0,-100.00,NNE,20,0.0,9.0,61,-99.99,,,-99.99,,2013-02-16 22:52:00,
2013-02-16 18:00:00,36.0,21.0,-100.00,West,274,3.0,10.0,55,-99.99,,,-99.99,,2013-02-16 23:00:00,
2013-02-16 18:21:00,36.0,21.0,-100.00,West,274,3.0,10.0,55,-99.99,,,-99.99,,2013-02-16 23:21:00,
2013-02-16 18:32:00,36.0,21.0,-100.00,West,274,3.0,10.0,55,-99.99,,,-99.99,,2013-02-16 23:32:00,
2013-02-16 18:42:00,36.0,21.0,-100.00,West,274,3.0,10.0,55,-99.99,,,-99.99,,2013-02-16 23:42:00,
2013-02-16 18:52:00,36.0,21.0,-100.00,West,274,3.0,10.0,55,-99.99,,,-99.99,,2013-02-16 23:52:00,
2013-02-16 19:00:00,35.0,19.0,-100.00,NNE,15,3.0,9.0,52,-99.99,,,-99.99,,2013-02-17 00:00:00,
2013-02-16 19:22:00,35.0,19.0,-100.00,NNE,15,3.0,9.0,52,-99.99,,,-99.99,,2013-02-17 00:22:00,
2013-02-16 19:32:00,35.0,19.0,-100.00,NNE,15,3.0,9.0,52,-99.99,,,-99.99,,2013-02-17 00:32:00,
2013-02-16 19:42:00,35.0,19.0,-100.00,NNE,15,3.0,9.0,52,-99.99,,,-99.99,,2013-02-17 00:42:00,
2013-02-16 19:52:00,35.0,19.0,-100.00,NNE,15,3.0,9.0,52,-99.99,,,-99.99,,2013-02-17 00:52:00,
2013-02-16 20:00:00,34.0,21.0,-100.00,North,4,9.0,13.0,58,-99.99,,,-99.99,,2013-02-17 01:00:00,
2013-02-16 20:21:00,34.0,21.0,-100.00,North,4,9.0,13.0,58,-99.99,,,-99.99,,2013-02-17 01:21:00,
2013-02-16 20:32:00,34.0,21.0,-100.00,North,4,9.0,13.0,58,-99.99,,,-99.99,,2013-02-17 01:32:00,
2013-02-16 20:42:00,34.0,21.0,-100.00,North,4,9.0,13.0,58,-99.99,,,-99.99,,2013-02-17 01:42:00,
2013-02-16 20:52:00,34.0,21.0,-100.00,North,4,9.0,13.0,58,-99.99,,,-99.99,,2013-02-17 01:52:00,
2013-02-16 21:00:00,33.0,20.0,-100.00,NNW,329,5.0,14.0,57,-99.99,,,-99.99,,2013-02-17 02:00:00,
2013-02-16 21:21:00,33.0,20.0,-100.00,NNW,329,5.0,14.0,57,-99.99,,,-99.99,,2013-02-17 02:21:00,
2013-02-16 21:32:00,33.0,20.0,-100.00,NNW,329,5.0,14.0,57,-99.99,,,-99.99,,2013-02-17 02:32:00,
2013-02-16 21:42:00,33.0,20.0,-100.00,NNW,329,5.0,14.0,57,-99.99,,,-99.99,,2013-02-17 02:42:00,
2013-02-16 21:52:00,33.0,20.0,-100.00,NNW,329,5.0,14.0,57,-99.99,,,-99.99,,2013-02-17 02:52:00,
2013-02-16 22:00:00,32.0,21.0,-100.00,NNE,14,8.0,15.0,65,-99.99,,,-99.99,,2013-02-17 03:00:00,
2013-02-16 22:21:00,32.0,21.0,-100.00,NNE,14,8.0,15.0,65,-99.99,,,-99.99,,2013-02-17 03:21:00,
2013-02-16 22:32:00,32.0,21.0,-100.00,NNE,14,8.0,15.0,65,-99.99,,,-99.99,,2013-02-17 03:32:00,
2013-02-16 22:42:00,32.0,21.0,-100.00,NNE,14,8.0,15.0,65,-99.99,,,-99.99,,2013-02-17 03:42:00,
2013-02-16 22:52:00,32.0,21.0,-100.00,NNE,14,8.0,15.0,65,-99.99,,,-99.99,,2013-02-17 03:52:00,
2013-02-16 23:00:00,31.0,18.0,-100.00,North,0,5.0,16.0,57,-99.99,,,-99.99,,2013-02-17 04:00:00,
2013-02-16 23:21:00,31.0,18.0,-100.00,North,0,5.0,16.0,57,-99.99,,,-99.99,,2013-02-17 04:21:00,
2013-02-16 23:32:00,31.0,18.0,-100.00,North,0,5.0,16.0,57,-99.99,,,-99.99,,2013-02-17 04:32:00,
2013-02-16 23:42:00,31.0,18.0,-100.00,North,0,5.0,16.0,57,-99.99,,,-99.99,,2013-02-17 04:42:00,
2013-02-16 23:52:00,31.0,18.0,-100.00,North,0,5.0,16.0,57,-99.99,,,-99.99,,2013-02-17 04:52:00,